Portada
METAR-TAF:

METAR-TAF

Aeroports :

Hyderabad, Índia

latitud: 17-27N, longitud: 078-28E, altitud: 530 m

Observació

L'informe es va fer fa 35 minuts, a les 15:00 UTC
Vent 12 kt del Oest
Temperatura 23°C
Humitat 94%
Pressió 1005 hPa
Visibilitat: 4000 m
Cel ennuvolat a una alçada de 1000 ft
Cel ennuvolat a una alçada de 1500 ft
Cel cobert a una alçada de 8000 ft
plugim,

METAR: VOHY 251500Z 26012KT 4000 -DZ BKN010 BKN015 OVC080 23/22 Q1005 NOSIG

Hora: 21:05 (15:35 UTC)

Pronòstic

L'informe es va fer fa 1 hora i 35 minuts, a les 14:00 UTC
Pronòstic vàlid del 25 a les 15 UTC al 25 a les 24 UTC
Vent 14 kt del Oest
Visibilitat: 4000 m
Núvols disperses a una alçada de 1000 ft
Núvols disperses a una alçada de 1500 ft
Cel ennuvolat a una alçada de 8000 ft
plugim
Temporalment
l' 25 a les 18 UTC al 25 a les 22 UTC
Visibilitat: 3000 m
plugim, pluja,

TAF: VOHY 251400Z 2515/2524 26014KT 4000 -DZ SCT010 SCT015 BKN080 TEMPO 2518/2522 3000 DZ -RA

Observacions i pronòstics meteorològics de més de 4000 aeroports (METAR i TAF).

Les estacions disponibles són els punts grocs i vermells al mapa.

Posi el ratolí al punt desitjat per veure el nom de l'estació.

Feu clic per veure les observacions i els pronòstics meteorològics.

Per canviar el mapa: feu clic els botons verds amb una creu de color negre per apropar; al botó verd amb un guió per allunyar la imatge; o en les fletxes verdes per a mapes adjacents.


METAR-TAF: